Time;durP1;ratioP1;P1;durP2;ratioP2;P2;SDS_P1;SDS_P2;PMS_P1;PMS_P2;Temp;Humidity;BMP_temperature;BMP_pressure;BME280_temperature;BME280_humidity;BME280_pressure;Samples;Min_cycle;Max_cycle;Signal;HPM_P1;HPM_P2
2023/12/14 05:06:25;;;;;;;;;86.50;68.50;;;;;;;;6029349;39;10001006;-54
2023/12/14 05:12:29;;;;;;;;;84.25;67.25;;;;;;;;6490952;46;9001;-54
2023/12/14 05:18:31;;;;;;;;;89.50;70.75;;;;;;;;6492408;46;8879;-55
2023/12/14 05:24:35;;;;;;;;;89.50;69.00;;;;;;;;6492996;46;8825;-56
2023/12/14 05:30:39;;;;;;;;;98.00;71.00;;;;;;;;6492191;39;9027;-56
2023/12/14 05:36:41;;;;;;;;;96.00;73.50;;;;;;;;6492325;39;8841;-52
2023/12/14 05:42:43;;;;;;;;;99.00;81.67;;;;;;;;6492472;39;8898;-53
2023/12/14 05:48:46;;;;;;;;;98.67;84.33;;;;;;;;6492259;39;9654;-51
2023/12/14 05:54:48;;;;;;;;;100.67;86.00;;;;;;;;6493275;39;8947;-55
2023/12/14 06:00:51;;;;;;;;;93.33;76.33;;;;;;;;6492481;31;148234;-55
2023/12/14 06:06:54;;;;;;;;;97.67;82.33;;;;;;;;6492924;39;9095;-55
2023/12/14 06:12:57;;;;;;;;;101.33;81.00;;;;;;;;6492661;31;9057;-56
2023/12/14 06:19:00;;;;;;;;;97.33;73.67;;;;;;;;6492174;39;8952;-58
2023/12/14 06:25:04;;;;;;;;;87.50;67.50;;;;;;;;6491890;39;8795;-57
2023/12/14 06:31:13;;;;;;;;;87.75;67.75;;;;;;;;6492048;39;8870;-53
2023/12/14 06:37:15;;;;;;;;;93.33;73.00;;;;;;;;6492588;31;8875;-54
2023/12/14 06:43:18;;;;;;;;;93.67;70.33;;;;;;;;6492656;39;8912;-55
2023/12/14 06:49:20;;;;;;;;;89.50;68.75;;;;;;;;6489686;31;9001;-55
2023/12/14 06:55:23;;;;;;;;;91.75;73.75;;;;;;;;6475122;39;9482;-57
2023/12/14 07:01:26;;;;;;;;;95.75;74.00;;;;;;;;6491074;31;9598;-55
2023/12/14 07:07:31;;;;;;;;;85.25;66.25;;;;;;;;6491112;31;8978;-54
2023/12/14 07:13:36;;;;;;;;;96.50;74.75;;;;;;;;6489684;39;8841;-54
2023/12/14 07:19:38;;;;;;;;;97.25;76.00;;;;;;;;6490393;39;8852;-55
2023/12/14 07:25:42;;;;;;;;;87.00;68.50;;;;;;;;6490316;39;8937;-58
2023/12/14 07:31:44;;;;;;;;;88.50;72.25;;;;;;;;6492677;31;8891;-56
2023/12/14 07:37:46;;;;;;;;;96.50;79.25;;;;;;;;6492191;39;8872;-55
2023/12/14 07:43:51;;;;;;;;;89.50;71.75;;;;;;;;6493541;39;8848;-60
2023/12/14 07:49:54;;;;;;;;;79.75;63.25;;;;;;;;6491645;39;8869;-57
2023/12/14 07:55:58;;;;;;;;;90.50;70.50;;;;;;;;6492758;39;8832;-54
2023/12/14 08:02:00;;;;;;;;;82.75;65.50;;;;;;;;6492348;46;9077;-57
2023/12/14 08:08:03;;;;;;;;;89.00;69.00;;;;;;;;6490779;39;8872;-55
2023/12/14 08:14:05;;;;;;;;;83.25;64.00;;;;;;;;6492251;39;8864;-57
2023/12/14 08:20:12;;;;;;;;;80.50;64.75;;;;;;;;6492934;39;9437;-55
2023/12/14 08:26:14;;;;;;;;;80.75;64.50;;;;;;;;6488150;39;8884;-56
2023/12/14 08:32:17;;;;;;;;;74.75;60.25;;;;;;;;6488451;46;8817;-55
2023/12/14 08:38:31;;;;;;;;;75.75;61.50;;;;;;;;6490438;31;8876;-58
2023/12/14 08:44:39;;;;;;;;;64.25;53.75;;;;;;;;6492109;39;9603;-60
2023/12/14 08:50:43;;;;;;;;;77.50;58.25;;;;;;;;6492342;31;8884;-58
2023/12/14 08:56:48;;;;;;;;;76.50;58.75;;;;;;;;6492076;46;8988;-58
2023/12/14 09:02:52;;;;;;;;;77.75;61.00;;;;;;;;6493183;39;9068;-61
2023/12/14 09:08:57;;;;;;;;;74.50;58.75;;;;;;;;6491938;39;8837;-62
2023/12/14 09:15:05;;;;;;;;;79.50;60.00;;;;;;;;6492702;39;8833;-62
2023/12/14 09:21:14;;;;;;;;;75.25;57.25;;;;;;;;6491784;39;9024;-59
2023/12/14 09:27:18;;;;;;;;;78.75;62.50;;;;;;;;6491894;31;8966;-60
2023/12/14 09:33:22;;;;;;;;;67.50;53.25;;;;;;;;6492889;39;8915;-58
2023/12/14 09:39:25;;;;;;;;;78.25;60.75;;;;;;;;6491316;39;8885;-60
2023/12/14 09:45:29;;;;;;;;;76.00;59.50;;;;;;;;6491952;39;8941;-60
2023/12/14 09:51:31;;;;;;;;;69.00;56.75;;;;;;;;6491566;46;8893;-59
2023/12/14 09:57:34;;;;;;;;;69.00;54.75;;;;;;;;6492412;39;8958;-58
2023/12/14 10:03:39;;;;;;;;;65.25;53.75;;;;;;;;6490876;46;8877;-61
2023/12/14 10:09:42;;;;;;;;;63.50;49.50;;;;;;;;6490655;31;8895;-58
2023/12/14 10:15:46;;;;;;;;;64.75;52.25;;;;;;;;6491219;39;8947;-60
2023/12/14 10:21:50;;;;;;;;;56.50;46.00;;;;;;;;6492558;31;8974;-60
2023/12/14 10:27:52;;;;;;;;;50.00;41.50;;;;;;;;6491395;39;8994;-59
2023/12/14 10:33:55;;;;;;;;;57.50;47.25;;;;;;;;6491278;46;8824;-59
2023/12/14 10:40:00;;;;;;;;;65.75;53.25;;;;;;;;6491991;31;8918;-60
2023/12/14 10:46:09;;;;;;;;;65.75;53.25;;;;;;;;6490629;46;8931;-59
2023/12/14 10:52:12;;;;;;;;;62.75;52.00;;;;;;;;6490267;46;8901;-59
2023/12/14 10:58:16;;;;;;;;;61.00;49.25;;;;;;;;6490725;39;8879;-60
2023/12/14 11:04:20;;;;;;;;;61.50;48.25;;;;;;;;6490365;39;8920;-61
2023/12/14 11:10:38;;;;;;;;;69.00;54.50;;;;;;;;6488867;31;8879;-60
2023/12/14 11:16:46;;;;;;;;;66.50;54.75;;;;;;;;6487985;31;8987;-63
2023/12/14 11:22:50;;;;;;;;;70.33;56.00;;;;;;;;6488230;46;9006;-60
2023/12/14 11:28:52;;;;;;;;;68.50;55.25;;;;;;;;6489954;47;8877;-59
2023/12/14 11:34:55;;;;;;;;;68.00;55.75;;;;;;;;6490650;39;8882;-60
2023/12/14 11:40:58;;;;;;;;;62.25;51.00;;;;;;;;6490510;31;8923;-58
2023/12/14 11:47:01;;;;;;;;;57.25;47.75;;;;;;;;6488593;39;8844;-60
2023/12/14 11:53:05;;;;;;;;;65.25;52.25;;;;;;;;6490036;39;8987;-61
2023/12/14 11:59:11;;;;;;;;;67.00;53.50;;;;;;;;6490723;31;8883;-59
2023/12/14 12:05:18;;;;;;;;;66.00;53.25;;;;;;;;6489960;39;8877;-58
2023/12/14 12:11:25;;;;;;;;;61.25;50.00;;;;;;;;6490260;47;8875;-60
2023/12/14 12:17:29;;;;;;;;;71.00;57.25;;;;;;;;6493253;39;8840;-59
2023/12/14 12:23:32;;;;;;;;;73.00;58.50;;;;;;;;6492306;39;8915;-61
2023/12/14 12:29:35;;;;;;;;;77.00;60.25;;;;;;;;6490855;39;8913;-59
2023/12/14 12:35:38;;;;;;;;;76.25;58.25;;;;;;;;6491344;31;9034;-61
2023/12/14 12:41:45;;;;;;;;;72.25;57.00;;;;;;;;6489757;39;8897;-62
2023/12/14 12:47:49;;;;;;;;;67.75;55.75;;;;;;;;6490477;39;8868;-60
2023/12/14 12:53:54;;;;;;;;;71.50;58.00;;;;;;;;6490043;39;8978;-59
2023/12/14 13:00:11;;;;;;;;;70.00;53.50;;;;;;;;6489284;46;9042;-59
2023/12/14 13:06:15;;;;;;;;;72.00;55.25;;;;;;;;6490335;46;8884;-59
2023/12/14 13:12:17;;;;;;;;;64.75;53.25;;;;;;;;6489935;39;9680;-60
2023/12/14 13:18:21;;;;;;;;;67.25;54.25;;;;;;;;6489976;39;8911;-59
2023/12/14 13:24:26;;;;;;;;;64.00;51.50;;;;;;;;6490003;39;8923;-60
2023/12/14 13:30:30;;;;;;;;;58.50;47.75;;;;;;;;6490749;39;8947;-60
2023/12/14 13:36:37;;;;;;;;;59.50;50.75;;;;;;;;6489230;39;8923;-59
2023/12/14 13:42:43;;;;;;;;;67.00;51.50;;;;;;;;6489119;31;8996;-60
2023/12/14 13:49:01;;;;;;;;;61.67;51.00;;;;;;;;6489399;31;8899;-60
2023/12/14 13:55:06;;;;;;;;;63.50;51.25;;;;;;;;6487865;39;9050;-60
2023/12/14 14:01:09;;;;;;;;;67.75;53.75;;;;;;;;6489757;39;9607;-60
2023/12/14 14:07:12;;;;;;;;;63.00;51.25;;;;;;;;6535237;36;8907;-59
2023/12/14 14:13:16;;;;;;;;;64.75;53.00;;;;;;;;6488493;46;9026;-59
2023/12/14 14:19:20;;;;;;;;;59.50;50.00;;;;;;;;6488673;46;8920;-59
2023/12/14 14:25:27;;;;;;;;;66.25;54.25;;;;;;;;6488502;39;8953;-61
2023/12/14 14:31:32;;;;;;;;;67.00;53.00;;;;;;;;6489144;46;8964;-59
2023/12/14 14:37:36;;;;;;;;;61.25;51.25;;;;;;;;6488570;39;8919;-61
2023/12/14 14:43:39;;;;;;;;;59.00;50.50;;;;;;;;6487247;46;8888;-60
2023/12/14 14:49:42;;;;;;;;;68.50;53.75;;;;;;;;6488927;39;8950;-60
2023/12/14 14:55:45;;;;;;;;;59.00;49.50;;;;;;;;6487260;46;9244;-59
2023/12/14 15:01:50;;;;;;;;;64.25;50.25;;;;;;;;6488726;31;9480;-59
2023/12/14 15:07:54;;;;;;;;;60.50;49.75;;;;;;;;6487382;31;8908;-60
2023/12/14 15:13:57;;;;;;;;;58.25;47.50;;;;;;;;6488048;46;8915;-59
2023/12/14 15:20:07;;;;;;;;;54.50;45.50;;;;;;;;6488893;39;8955;-59
2023/12/14 15:26:10;;;;;;;;;50.50;43.75;;;;;;;;6488502;47;8911;-59
2023/12/14 15:32:16;;;;;;;;;50.25;41.75;;;;;;;;6488146;31;8948;-59
2023/12/14 15:38:20;;;;;;;;;64.00;51.00;;;;;;;;6488123;39;8906;-61
2023/12/14 15:44:29;;;;;;;;;63.25;52.75;;;;;;;;6489467;31;9032;-61
2023/12/14 15:50:34;;;;;;;;;61.00;50.00;;;;;;;;6489768;46;8867;-59
2023/12/14 15:56:37;;;;;;;;;55.25;46.50;;;;;;;;6489227;46;8907;-60
2023/12/14 16:02:42;;;;;;;;;61.25;49.25;;;;;;;;6490670;46;8947;-60
2023/12/14 16:08:47;;;;;;;;;62.50;50.50;;;;;;;;6489681;46;8873;-58
2023/12/14 16:14:55;;;;;;;;;61.75;51.00;;;;;;;;6490342;46;9022;-60
2023/12/14 16:20:57;;;;;;;;;65.75;50.50;;;;;;;;6489690;31;8912;-59
2023/12/14 16:27:01;;;;;;;;;62.00;50.00;;;;;;;;6488866;46;9007;-62
2023/12/14 16:33:04;;;;;;;;;66.25;50.75;;;;;;;;6489244;39;8837;-61
2023/12/14 16:39:11;;;;;;;;;63.75;51.75;;;;;;;;6489243;39;8932;-60
2023/12/14 16:45:21;;;;;;;;;58.75;46.50;;;;;;;;6489244;39;9083;-58
2023/12/14 16:51:27;;;;;;;;;51.75;44.25;;;;;;;;6488532;39;8880;-60
2023/12/14 16:57:30;;;;;;;;;56.25;45.25;;;;;;;;6488786;46;8958;-60
2023/12/14 17:03:32;;;;;;;;;58.00;43.50;;;;;;;;6489410;31;9006;-59
2023/12/14 17:09:35;;;;;;;;;63.00;52.00;;;;;;;;6488047;31;8873;-57
2023/12/14 17:15:39;;;;;;;;;47.25;43.00;;;;;;;;6488117;39;8924;-62
2023/12/14 17:21:55;;;;;;;;;55.00;45.50;;;;;;;;6014596;31;10009957;-60
2023/12/14 17:27:59;;;;;;;;;58.50;42.50;;;;;;;;1891465;39;10001174;-59
2023/12/14 17:34:03;;;;;;;;;52.00;43.50;;;;;;;;6484616;39;10223;-60
2023/12/14 17:40:09;;;;;;;;;38.50;37.00;;;;;;;;6484789;39;8849;-59
2023/12/14 17:46:15;;;;;;;;;45.50;38.25;;;;;;;;6485093;39;8914;-61
2023/12/14 17:52:19;;;;;;;;;43.25;36.25;;;;;;;;6484730;39;8922;-59
2023/12/14 17:58:28;;;;;;;;;40.25;38.00;;;;;;;;6486442;31;8897;-59
2023/12/14 18:04:32;;;;;;;;;36.25;34.75;;;;;;;;6487000;46;8900;-58
2023/12/14 18:10:37;;;;;;;;;31.25;31.25;;;;;;;;6488628;39;8973;-60
2023/12/14 18:16:40;;;;;;;;;40.75;39.50;;;;;;;;5057312;31;10001505;-58
2023/12/14 18:22:43;;;;;;;;;47.75;41.25;;;;;;;;6484585;46;11991;-60
2023/12/14 18:28:49;;;;;;;;;35.50;32.75;;;;;;;;6485151;39;9044;-57
2023/12/14 18:34:53;;;;;;;;;42.75;38.75;;;;;;;;6484282;39;8944;-59
2023/12/14 18:40:56;;;;;;;;;35.00;33.00;;;;;;;;6529924;36;8933;-60
2023/12/14 18:46:59;;;;;;;;;27.50;27.50;;;;;;;;6485662;39;8859;-59
2023/12/14 18:53:04;;;;;;;;;38.25;28.75;;;;;;;;6487429;31;8871;-59
2023/12/14 18:59:06;;;;;;;;;41.00;38.50;;;;;;;;6487325;46;8843;-59
2023/12/14 19:05:10;;;;;;;;;41.00;36.50;;;;;;;;6486151;47;8840;-59
